WetterOnline ( http://www.wetteronline.ch )

Wetter aktuell Wien

Aktuelles Wetter: Wien / Hohe Warte (200m)

6-stündlich | Neueste Meldungen
Ortszeit Temperatur Wetter
Di, 26.03. 13:00 9.8° C bewölkt
Di, 26.03. 7:00 5.0° C bewölkt
Di, 26.03. 1:00 5.7° C leichter Regen
Mo, 25.03. 19:00 7.2° C leicht bewölkt
Mo, 25.03. 13:00 13.0° C wolkig
Mo, 25.03. 7:00 9.2° C bewölkt
Mo, 25.03. 1:00 10.4° C bewölkt
So, 24.03. 19:00 14.2° C leicht bewölkt
Ortszeit Temperatur Wetter
Di, 26.03. 18:00 8.8° C wolkig
Di, 26.03. 17:00 9.3° C wolkig
Di, 26.03. 16:00 9.9° C wolkig
Di, 26.03. 15:00 10.3° C bewölkt
Di, 26.03. 14:00 10.9° C wolkig
Di, 26.03. 13:00 9.8° C bewölkt
Ortszeit Relative Feuchte Sichtweite
Di, 26.03. 13:00 41% 50 km
Di, 26.03. 7:00 64% 50 km
Di, 26.03. 1:00 65% 30 km
Mo, 25.03. 19:00 53% 30 km
Mo, 25.03. 13:00 46% 12 km
Mo, 25.03. 7:00 77% 8 km
Mo, 25.03. 1:00 72% 10 km
So, 24.03. 19:00 55% 16 km
Ortszeit Relative Feuchte Sichtweite
Di, 26.03. 18:00 48% 60 km
Di, 26.03. 17:00 45% 60 km
Di, 26.03. 16:00 41% 60 km
Di, 26.03. 15:00 38% 60 km
Di, 26.03. 14:00 38% 50 km
Di, 26.03. 13:00 41% 50 km
Ortszeit Niederschlagsmenge Niederschlagsart
Di, 26.03. 13:00 0.0 l/m2 in 24 Std. -
Di, 26.03. 7:00 0.2 l/m2 in 12 Std. Regen
Di, 26.03. 1:00 0.1 l/m2 in 6 Std. -
Mo, 25.03. 19:00 0.9 l/m2 in 12 Std. -
Mo, 25.03. 13:00 0.9 l/m2 in 6 Std. Regen
Mo, 25.03. 7:00 0.1 l/m2 in 12 Std. Schauer
Mo, 25.03. 1:00 0.0 l/m2 in 24 Std. -
So, 24.03. 19:00 0.0 l/m2 in 24 Std. -
Ortszeit Niederschlagsmenge Niederschlagsart
Di, 26.03. 18:00 keine Meldung -
Di, 26.03. 17:00 keine Meldung -
Di, 26.03. 16:00 keine Meldung -
Di, 26.03. 15:00 keine Meldung -
Di, 26.03. 14:00 keine Meldung -
Di, 26.03. 13:00 keine Meldung -
Ortszeit Stärke Spitze Richtung
km/h Bft. km/h Grad Sektor
Di, 26.03. 13:00 22 4 50 310° NW
Di, 26.03. 7:00 18 3 - 300° NW
Di, 26.03. 1:00 18 3 - 310° NW
Mo, 25.03. 19:00 18 3 72 330° NW
Mo, 25.03. 13:00 18 3 54 310° NW
Mo, 25.03. 7:00 7 2 - 340° N
Mo, 25.03. 1:00 11 2 - 330° NW
So, 24.03. 19:00 7 2 - 340° N
Ortszeit Stärke Spitze Richtung
km/h Bft. km/h Grad Sektor
Di, 26.03. 18:00 14 3 - 290° W
Di, 26.03. 17:00 18 3 - 300° NW
Di, 26.03. 16:00 18 3 50 300° NW
Di, 26.03. 15:00 25 4 47 320° NW
Di, 26.03. 14:00 22 4 50 300° NW
Di, 26.03. 13:00 22 4 50 310° NW
Ortszeit Untergrenze Bedeckung Gattung
total tief tief mittel hoch
Di, 26.03. 13:00 1200 m 7/8 7/8 Cu - -
Di, 26.03. 7:00 1200 m 7/8 7/8 Sc - -
Di, 26.03. 1:00 1440 m 8/8 7/8 Sc - -
Mo, 25.03. 19:00 5100 m 4/8 4/8 - Ac -
Mo, 25.03. 13:00 1200 m 7/8 4/8 Cu - Ci
Mo, 25.03. 7:00 1050 m 7/8 7/8 Sc - -
Mo, 25.03. 1:00 1800 m 7/8 6/8 Sc Ac -
So, 24.03. 19:00 9000 m 3/8 0/8 - - Ci
Ortszeit Bedeckungsgrad in Achtel und Wolkenuntergrenze
Di, 26.03. 18:00 1(1350m) 3(1800m)
Di, 26.03. 17:00 1(1350m) 6(1800m)
Di, 26.03. 16:00 6(1800m)
Di, 26.03. 15:00 7(1800m)
Di, 26.03. 14:00 5(1500m)
Di, 26.03. 13:00 1(1200m) 7(1800m)
Ortszeit Luftdruck NN (hPa) Tendenz (hPa in 3 Std.)
Di, 26.03. 13:00 1025 - 0,4
Di, 26.03. 7:00 1025 + 2,0
Di, 26.03. 1:00 1022 + 2,3
Mo, 25.03. 19:00 1016 + 1,3
Mo, 25.03. 13:00 1013 - 1,8
Mo, 25.03. 7:00 1016 - 0,2
Mo, 25.03. 1:00 1017 - 1,2
So, 24.03. 19:00 1017 - 0,3
Ortszeit Luftdruck NN (hPa) Tendenz (hPa in 3 Std.)
Di, 26.03. 18:00 1024 + 0,3
Di, 26.03. 17:00 1024 0,0
Di, 26.03. 16:00 1024 - 0,9
Di, 26.03. 15:00 1024 - 1,1
Di, 26.03. 14:00 1024 - 1,2
Di, 26.03. 13:00 1025 - 0,4
Ortszeit Schneehöhe (cm)
Di, 26.03. 13:00 -
Di, 26.03. 7:00 -
Di, 26.03. 1:00 -
Mo, 25.03. 19:00 -
Mo, 25.03. 13:00 -
Mo, 25.03. 7:00 -
Mo, 25.03. 1:00 -
So, 24.03. 19:00 -
Ortszeit Schneehöhe (cm)
Di, 26.03. 18:00 -
Di, 26.03. 17:00 -
Di, 26.03. 16:00 -
Di, 26.03. 15:00 -
Di, 26.03. 14:00 -
Di, 26.03. 13:00 -
Link zu dieser Seite / Seite empfehlen

Das Wetter in ...